sensor_id;sensor_type;location;lat;lon;timestamp;pressure;altitude;pressure_sealevel;temperature;humidity
28354;BME280;15603;50.878;8.036;2023-02-28T00:01:06;142740.59;;;-2.25;97.92
28354;BME280;15603;50.878;8.036;2023-02-28T00:03:33;142882.66;;;-1.64;98.37
28354;BME280;15603;50.878;8.036;2023-02-28T00:06:07;142904.34;;;-1.55;98.56
28354;BME280;15603;50.878;8.036;2023-02-28T00:08:34;142874.22;;;-1.68;99.03
28354;BME280;15603;50.878;8.036;2023-02-28T00:11:06;142887.47;;;-1.62;98.40
28354;BME280;15603;50.878;8.036;2023-02-28T00:13:36;142829.66;;;-1.87;98.53
28354;BME280;15603;50.878;8.036;2023-02-28T00:16:11;142885.06;;;-1.63;97.76
28354;BME280;15603;50.878;8.036;2023-02-28T00:18:40;142877.84;;;-1.66;97.96
28354;BME280;15603;50.878;8.036;2023-02-28T00:21:08;142824.84;;;-1.89;98.35
28354;BME280;15603;50.878;8.036;2023-02-28T00:23:35;142747.81;;;-2.22;99.39
28354;BME280;15603;50.878;8.036;2023-02-28T00:26:02;142820.03;;;-1.91;99.83
28354;BME280;15603;50.878;8.036;2023-02-28T00:28:29;142839.31;;;-1.83;99.62
28354;BME280;15603;50.878;8.036;2023-02-28T00:30:59;142829.66;;;-1.87;99.95
28354;BME280;15603;50.878;8.036;2023-02-28T00:33:28;142815.22;;;-1.93;100.00
28354;BME280;15603;50.878;8.036;2023-02-28T00:36:03;142816.47;;;-1.92;100.00
28354;BME280;15603;50.878;8.036;2023-02-28T00:38:31;142706.88;;;-2.39;99.99
28354;BME280;15603;50.878;8.036;2023-02-28T00:41:00;142863.41;;;-1.72;99.08
28354;BME280;15603;50.878;8.036;2023-02-28T00:43:33;142844.13;;;-1.81;98.16
28354;BME280;15603;50.878;8.036;2023-02-28T00:46:01;142815.22;;;-1.93;99.93
28354;BME280;15603;50.878;8.036;2023-02-28T00:48:30;142727.38;;;-2.30;100.00
28354;BME280;15603;50.878;8.036;2023-02-28T00:50:57;142755.03;;;-2.19;100.00
28354;BME280;15603;50.878;8.036;2023-02-28T00:53:24;142750.22;;;-2.21;100.00
28354;BME280;15603;50.878;8.036;2023-02-28T00:55:52;142720.13;;;-2.33;100.00
28354;BME280;15603;50.878;8.036;2023-02-28T00:58:19;142649.13;;;-2.64;100.00
28354;BME280;15603;50.878;8.036;2023-02-28T01:00:46;142699.69;;;-2.42;100.00
28354;BME280;15603;50.878;8.036;2023-02-28T01:03:17;142582.97;;;-2.92;100.00
28354;BME280;15603;50.878;8.036;2023-02-28T01:05:45;142584.16;;;-2.91;100.00
28354;BME280;15603;50.878;8.036;2023-02-28T01:08:13;142710.50;;;-2.38;100.00
28354;BME280;15603;50.878;8.036;2023-02-28T01:10:41;142663.59;;;-2.58;100.00
28354;BME280;15603;50.878;8.036;2023-02-28T01:13:08;142722.56;;;-2.32;100.00
28354;BME280;15603;50.878;8.036;2023-02-28T01:15:37;142699.69;;;-2.42;100.00
28354;BME280;15603;50.878;8.036;2023-02-28T01:18:05;142694.88;;;-2.44;100.00
28354;BME280;15603;50.878;8.036;2023-02-28T01:20:33;142682.84;;;-2.49;100.00
28354;BME280;15603;50.878;8.036;2023-02-28T01:23:01;142667.16;;;-2.56;100.00
28354;BME280;15603;50.878;8.036;2023-02-28T01:25:28;142663.59;;;-2.58;100.00
28354;BME280;15603;50.878;8.036;2023-02-28T01:27:55;142661.16;;;-2.59;100.00
28354;BME280;15603;50.878;8.036;2023-02-28T01:30:22;142650.34;;;-2.63;100.00
28354;BME280;15603;50.878;8.036;2023-02-28T01:32:49;142658.78;;;-2.60;100.00
28354;BME280;15603;50.878;8.036;2023-02-28T01:35:18;142680.41;;;-2.50;100.00
28354;BME280;15603;50.878;8.036;2023-02-28T01:37:45;142726.16;;;-2.31;100.00
28354;BME280;15603;50.878;8.036;2023-02-28T01:40:13;142771.91;;;-2.11;100.00
28354;BME280;15603;50.878;8.036;2023-02-28T01:42:40;142791.16;;;-2.03;100.00
28354;BME280;15603;50.878;8.036;2023-02-28T01:45:33;142877.84;;;-1.66;98.58
28354;BME280;15603;50.878;8.036;2023-02-28T01:48:05;142903.13;;;-1.55;96.10
28354;BME280;15603;50.878;8.036;2023-02-28T01:50:36;142919.97;;;-1.48;95.66
28354;BME280;15603;50.878;8.036;2023-02-28T01:53:07;142930.84;;;-1.44;94.29
28354;BME280;15603;50.878;8.036;2023-02-28T01:55:37;142938.03;;;-1.41;94.23
28354;BME280;15603;50.878;8.036;2023-02-28T01:58:06;142969.34;;;-1.27;93.22
28354;BME280;15603;50.878;8.036;2023-02-28T02:00:34;142923.59;;;-1.47;93.88
28354;BME280;15603;50.878;8.036;2023-02-28T02:03:09;142969.34;;;-1.27;93.38
28354;BME280;15603;50.878;8.036;2023-02-28T02:05:39;142979.03;;;-1.23;92.87
28354;BME280;15603;50.878;8.036;2023-02-28T02:08:12;142971.78;;;-1.26;93.64
28354;BME280;15603;50.878;8.036;2023-02-28T02:10:44;142976.59;;;-1.24;92.94
28354;BME280;15603;50.878;8.036;2023-02-28T02:13:28;142972.97;;;-1.26;92.99
28354;BME280;15603;50.878;8.036;2023-02-28T02:22:01;142940.47;;;-1.40;90.45
28354;BME280;15603;50.878;8.036;2023-02-28T02:25:02;142954.91;;;-1.33;90.99
28354;BME280;15603;50.878;8.036;2023-02-28T02:28:04;142985.03;;;-1.21;89.80
28354;BME280;15603;50.878;8.036;2023-02-28T02:36:23;142957.34;;;-1.32;88.75
28354;BME280;15603;50.878;8.036;2023-02-28T02:39:02;142941.66;;;-1.39;89.68
28354;BME280;15603;50.878;8.036;2023-02-28T02:41:47;142974.19;;;-1.25;89.33
28354;BME280;15603;50.878;8.036;2023-02-28T02:47:15;142918.78;;;-1.49;89.74
28354;BME280;15603;50.878;8.036;2023-02-28T02:49:50;142851.34;;;-1.78;89.53
28354;BME280;15603;50.878;8.036;2023-02-28T02:52:23;142921.22;;;-1.48;89.48
28354;BME280;15603;50.878;8.036;2023-02-28T02:54:54;142881.47;;;-1.65;90.31
28354;BME280;15603;50.878;8.036;2023-02-28T02:57:29;142873.03;;;-1.68;89.58
28354;BME280;15603;50.878;8.036;2023-02-28T02:59:58;142875.44;;;-1.67;88.93
28354;BME280;15603;50.878;8.036;2023-02-28T03:02:28;142873.03;;;-1.68;89.68
28354;BME280;15603;50.878;8.036;2023-02-28T03:05:04;142860.97;;;-1.73;89.19
28354;BME280;15603;50.878;8.036;2023-02-28T03:07:33;142838.09;;;-1.83;90.56
28354;BME280;15603;50.878;8.036;2023-02-28T03:10:00;142832.09;;;-1.86;90.19
28354;BME280;15603;50.878;8.036;2023-02-28T03:12:37;142711.69;;;-2.37;90.15
28354;BME280;15603;50.878;8.036;2023-02-28T03:15:08;142785.16;;;-2.06;91.00
28354;BME280;15603;50.878;8.036;2023-02-28T03:23:15;142730.97;;;-2.29;92.12
28354;BME280;15603;50.878;8.036;2023-02-28T03:26:04;142721.31;;;-2.33;91.80
28354;BME280;15603;50.878;8.036;2023-02-28T03:31:22;142733.38;;;-2.28;92.33
28354;BME280;15603;50.878;8.036;2023-02-28T03:34:00;142638.31;;;-2.68;90.42
28354;BME280;15603;50.878;8.036;2023-02-28T03:36:37;142723.75;;;-2.32;90.25
28354;BME280;15603;50.878;8.036;2023-02-28T03:39:20;142829.66;;;-1.87;89.39
28354;BME280;15603;50.878;8.036;2023-02-28T03:44:25;142850.16;;;-1.78;88.05
28354;BME280;15603;50.878;8.036;2023-02-28T03:47:08;142845.34;;;-1.80;88.27
28354;BME280;15603;50.878;8.036;2023-02-28T03:49:42;142841.72;;;-1.82;87.57
28354;BME280;15603;50.878;8.036;2023-02-28T03:52:12;142865.78;;;-1.71;88.02
28354;BME280;15603;50.878;8.036;2023-02-28T03:54:44;142851.34;;;-1.78;88.09
28354;BME280;15603;50.878;8.036;2023-02-28T03:57:34;142822.47;;;-1.90;88.94
28354;BME280;15603;50.878;8.036;2023-02-28T04:00:14;142780.34;;;-2.08;90.31
28354;BME280;15603;50.878;8.036;2023-02-28T04:02:45;142770.66;;;-2.12;90.67
28354;BME280;15603;50.878;8.036;2023-02-28T04:05:12;142699.69;;;-2.42;90.74
28354;BME280;15603;50.878;8.036;2023-02-28T04:07:39;142634.69;;;-2.70;93.01
28354;BME280;15603;50.878;8.036;2023-02-28T04:10:06;142650.34;;;-2.63;93.09
28354;BME280;15603;50.878;8.036;2023-02-28T04:12:33;142720.13;;;-2.33;92.52
28354;BME280;15603;50.878;8.036;2023-02-28T04:15:00;142690.06;;;-2.46;93.89
28354;BME280;15603;50.878;8.036;2023-02-28T04:17:27;142690.06;;;-2.46;94.48
28354;BME280;15603;50.878;8.036;2023-02-28T04:19:54;142687.63;;;-2.47;94.94
28354;BME280;15603;50.878;8.036;2023-02-28T04:22:24;142664.78;;;-2.57;95.05
28354;BME280;15603;50.878;8.036;2023-02-28T04:24:54;142562.50;;;-3.01;95.61
28354;BME280;15603;50.878;8.036;2023-02-28T04:27:21;142603.41;;;-2.83;95.46
28354;BME280;15603;50.878;8.036;2023-02-28T04:29:48;142620.25;;;-2.76;96.38
28354;BME280;15603;50.878;8.036;2023-02-28T04:32:15;142650.34;;;-2.63;95.97
28354;BME280;15603;50.878;8.036;2023-02-28T04:34:42;142596.22;;;-2.86;96.75
28354;BME280;15603;50.878;8.036;2023-02-28T04:37:09;142556.50;;;-3.03;98.16
28354;BME280;15603;50.878;8.036;2023-02-28T04:39:41;142584.16;;;-2.91;98.12
28354;BME280;15603;50.878;8.036;2023-02-28T04:42:09;142451.88;;;-3.48;99.42
28354;BME280;15603;50.878;8.036;2023-02-28T04:44:36;142564.94;;;-3.00;98.95
28354;BME280;15603;50.878;8.036;2023-02-28T04:47:04;142582.97;;;-2.92;99.56
28354;BME280;15603;50.878;8.036;2023-02-28T04:49:31;142574.53;;;-2.96;99.50
28354;BME280;15603;50.878;8.036;2023-02-28T04:51:58;142568.53;;;-2.98;100.00
28354;BME280;15603;50.878;8.036;2023-02-28T04:54:25;142549.25;;;-3.06;100.00
28354;BME280;15603;50.878;8.036;2023-02-28T04:56:52;142551.69;;;-3.05;100.00
28354;BME280;15603;50.878;8.036;2023-02-28T04:59:19;142531.22;;;-3.14;100.00
28354;BME280;15603;50.878;8.036;2023-02-28T05:01:47;142536.03;;;-3.12;100.00
28354;BME280;15603;50.878;8.036;2023-02-28T05:04:15;142506.00;;;-3.25;100.00
28354;BME280;15603;50.878;8.036;2023-02-28T05:06:42;142512.00;;;-3.22;100.00
28354;BME280;15603;50.878;8.036;2023-02-28T05:09:09;142486.72;;;-3.33;100.00
28354;BME280;15603;50.878;8.036;2023-02-28T05:11:38;142492.75;;;-3.30;100.00
28354;BME280;15603;50.878;8.036;2023-02-28T05:14:10;142491.56;;;-3.31;100.00
28354;BME280;15603;50.878;8.036;2023-02-28T05:16:38;142483.16;;;-3.34;100.00
28354;BME280;15603;50.878;8.036;2023-02-28T05:19:05;142326.84;;;-4.01;100.00
28354;BME280;15603;50.878;8.036;2023-02-28T05:21:41;142466.31;;;-3.42;100.00
28354;BME280;15603;50.878;8.036;2023-02-28T05:24:11;142474.72;;;-3.38;100.00
28354;BME280;15603;50.878;8.036;2023-02-28T05:26:41;142467.50;;;-3.41;100.00
28354;BME280;15603;50.878;8.036;2023-02-28T05:29:09;142390.53;;;-3.74;100.00
28354;BME280;15603;50.878;8.036;2023-02-28T05:31:36;142465.13;;;-3.42;100.00
28354;BME280;15603;50.878;8.036;2023-02-28T05:34:03;142389.34;;;-3.75;100.00
28354;BME280;15603;50.878;8.036;2023-02-28T05:36:31;142277.56;;;-4.22;100.00
28354;BME280;15603;50.878;8.036;2023-02-28T05:38:59;142353.28;;;-3.90;100.00
28354;BME280;15603;50.878;8.036;2023-02-28T05:41:26;142407.41;;;-3.67;100.00
28354;BME280;15603;50.878;8.036;2023-02-28T05:43:54;142317.25;;;-4.05;100.00
28354;BME280;15603;50.878;8.036;2023-02-28T05:46:21;142360.47;;;-3.87;100.00
28354;BME280;15603;50.878;8.036;2023-02-28T05:48:48;142362.91;;;-3.86;100.00
28354;BME280;15603;50.878;8.036;2023-02-28T05:51:16;142355.69;;;-3.89;100.00
28354;BME280;15603;50.878;8.036;2023-02-28T05:53:44;142353.28;;;-3.90;100.00
28354;BME280;15603;50.878;8.036;2023-02-28T05:56:11;142350.88;;;-3.91;100.00
28354;BME280;15603;50.878;8.036;2023-02-28T05:58:38;142334.06;;;-3.98;100.00
28354;BME280;15603;50.878;8.036;2023-02-28T06:01:38;142174.25;;;-4.66;100.00
28354;BME280;15603;50.878;8.036;2023-02-28T06:04:08;142180.25;;;-4.64;100.00
28354;BME280;15603;50.878;8.036;2023-02-28T06:06:48;142401.41;;;-3.69;100.00
28354;BME280;15603;50.878;8.036;2023-02-28T06:09:17;142397.78;;;-3.71;100.00
28354;BME280;15603;50.878;8.036;2023-02-28T06:11:44;142472.31;;;-3.39;100.00
28354;BME280;15603;50.878;8.036;2023-02-28T06:14:16;142481.91;;;-3.35;100.00
28354;BME280;15603;50.878;8.036;2023-02-28T06:16:44;142504.75;;;-3.25;100.00
28354;BME280;15603;50.878;8.036;2023-02-28T06:19:11;142495.16;;;-3.29;100.00
28354;BME280;15603;50.878;8.036;2023-02-28T06:21:39;142514.41;;;-3.21;100.00
28354;BME280;15603;50.878;8.036;2023-02-28T06:24:06;142520.41;;;-3.19;100.00
28354;BME280;15603;50.878;8.036;2023-02-28T06:26:34;142519.22;;;-3.19;100.00
28354;BME280;15603;50.878;8.036;2023-02-28T06:29:01;142398.97;;;-3.70;100.00
28354;BME280;15603;50.878;8.036;2023-02-28T06:31:28;142350.88;;;-3.91;100.00
28354;BME280;15603;50.878;8.036;2023-02-28T06:33:56;142545.69;;;-3.08;100.00
28354;BME280;15603;50.878;8.036;2023-02-28T06:36:23;142550.50;;;-3.06;100.00
28354;BME280;15603;50.878;8.036;2023-02-28T06:38:50;142569.75;;;-2.98;100.00
28354;BME280;15603;50.878;8.036;2023-02-28T06:41:23;142495.16;;;-3.29;100.00
28354;BME280;15603;50.878;8.036;2023-02-28T06:43:51;142449.47;;;-3.49;100.00
28354;BME280;15603;50.878;8.036;2023-02-28T06:46:19;142495.16;;;-3.29;100.00
28354;BME280;15603;50.878;8.036;2023-02-28T06:48:46;142607.03;;;-2.82;100.00
28354;BME280;15603;50.878;8.036;2023-02-28T06:51:16;142628.69;;;-2.72;100.00
28354;BME280;15603;50.878;8.036;2023-02-28T06:53:43;142644.31;;;-2.66;100.00
28354;BME280;15603;50.878;8.036;2023-02-28T06:56:12;142682.84;;;-2.49;99.07
28354;BME280;15603;50.878;8.036;2023-02-28T06:58:41;142653.97;;;-2.62;100.00
28354;BME280;15603;50.878;8.036;2023-02-28T07:01:08;142680.41;;;-2.50;100.00
28354;BME280;15603;50.878;8.036;2023-02-28T07:03:36;142607.03;;;-2.82;100.00
28354;BME280;15603;50.878;8.036;2023-02-28T07:06:04;142686.44;;;-2.48;100.00
28354;BME280;15603;50.878;8.036;2023-02-28T07:08:33;142702.06;;;-2.41;100.00
28354;BME280;15603;50.878;8.036;2023-02-28T07:11:00;142750.22;;;-2.21;92.80
28354;BME280;15603;50.878;8.036;2023-02-28T07:13:27;142788.72;;;-2.04;90.46
28354;BME280;15603;50.878;8.036;2023-02-28T07:16:04;142824.84;;;-1.89;87.51
28354;BME280;15603;50.878;8.036;2023-02-28T07:18:32;142876.66;;;-1.67;82.93
28354;BME280;15603;50.878;8.036;2023-02-28T07:21:02;142805.59;;;-1.97;79.62
28354;BME280;15603;50.878;8.036;2023-02-28T07:23:29;143017.56;;;-1.07;72.54
28354;BME280;15603;50.878;8.036;2023-02-28T07:25:56;143004.31;;;-1.12;72.93
28354;BME280;15603;50.878;8.036;2023-02-28T07:28:24;143050.09;;;-0.93;74.61
28354;BME280;15603;50.878;8.036;2023-02-28T07:30:51;142959.72;;;-1.31;73.13
28354;BME280;15603;50.878;8.036;2023-02-28T07:33:19;143065.78;;;-0.86;69.96
28354;BME280;15603;50.878;8.036;2023-02-28T07:35:46;143106.75;;;-0.69;67.75
28354;BME280;15603;50.878;8.036;2023-02-28T07:38:13;143183.88;;;-0.36;64.13
28354;BME280;15603;50.878;8.036;2023-02-28T07:40:40;143207.97;;;-0.26;66.07
28354;BME280;15603;50.878;8.036;2023-02-28T07:43:07;143253.78;;;-0.06;63.94
28354;BME280;15603;50.878;8.036;2023-02-28T07:45:34;143273.09;;;0.02;64.31
28354;BME280;15603;50.878;8.036;2023-02-28T07:48:02;143302.03;;;0.14;63.55
28354;BME280;15603;50.878;8.036;2023-02-28T07:50:29;143312.88;;;0.19;61.67
28354;BME280;15603;50.878;8.036;2023-02-28T07:53:00;143135.66;;;-0.56;60.91
28354;BME280;15603;50.878;8.036;2023-02-28T07:55:27;143281.50;;;0.06;60.78
28354;BME280;15603;50.878;8.036;2023-02-28T07:57:56;143246.56;;;-0.09;60.16
28354;BME280;15603;50.878;8.036;2023-02-28T08:00:24;143333.41;;;0.28;58.85
28354;BME280;15603;50.878;8.036;2023-02-28T08:02:51;143346.66;;;0.33;60.08
28354;BME280;15603;50.878;8.036;2023-02-28T08:05:18;143323.75;;;0.24;59.62
28354;BME280;15603;50.878;8.036;2023-02-28T08:07:49;143365.94;;;0.42;59.09
28354;BME280;15603;50.878;8.036;2023-02-28T08:10:16;143403.34;;;0.57;59.19
28354;BME280;15603;50.878;8.036;2023-02-28T08:12:43;143398.50;;;0.55;57.24
28354;BME280;15603;50.878;8.036;2023-02-28T08:15:11;143456.44;;;0.80;56.26
28354;BME280;15603;50.878;8.036;2023-02-28T08:17:38;143481.78;;;0.91;56.86
28354;BME280;15603;50.878;8.036;2023-02-28T08:20:06;143501.09;;;0.99;55.84
28354;BME280;15603;50.878;8.036;2023-02-28T08:22:33;143492.63;;;0.95;56.27
28354;BME280;15603;50.878;8.036;2023-02-28T08:25:00;143524.00;;;1.09;55.10
28354;BME280;15603;50.878;8.036;2023-02-28T08:27:27;143554.19;;;1.22;55.10
28354;BME280;15603;50.878;8.036;2023-02-28T08:29:54;143574.69;;;1.30;54.77
28354;BME280;15603;50.878;8.036;2023-02-28T08:32:21;143476.97;;;0.89;54.63
28354;BME280;15603;50.878;8.036;2023-02-28T08:34:56;143602.47;;;1.42;54.59
28354;BME280;15603;50.878;8.036;2023-02-28T08:37:23;143621.81;;;1.50;53.78
28354;BME280;15603;50.878;8.036;2023-02-28T08:39:51;143630.22;;;1.54;54.41
28354;BME280;15603;50.878;8.036;2023-02-28T08:42:23;143688.19;;;1.79;53.55
28354;BME280;15603;50.878;8.036;2023-02-28T08:44:50;143695.44;;;1.82;54.53
28354;BME280;15603;50.878;8.036;2023-02-28T08:47:17;143689.44;;;1.79;52.09
28354;BME280;15603;50.878;8.036;2023-02-28T08:49:44;143668.88;;;1.70;52.82
28354;BME280;15603;50.878;8.036;2023-02-28T08:52:11;143701.47;;;1.84;52.83
28354;BME280;15603;50.878;8.036;2023-02-28T08:54:38;143717.19;;;1.91;52.54
28354;BME280;15603;50.878;8.036;2023-02-28T08:57:05;143695.44;;;1.82;51.59
28354;BME280;15603;50.878;8.036;2023-02-28T08:59:33;143682.16;;;1.76;51.23
28354;BME280;15603;50.878;8.036;2023-02-28T09:02:00;143668.88;;;1.70;52.18
28354;BME280;15603;50.878;8.036;2023-02-28T09:04:27;143714.75;;;1.90;51.67
28354;BME280;15603;50.878;8.036;2023-02-28T09:06:57;143736.50;;;1.99;51.52
28354;BME280;15603;50.878;8.036;2023-02-28T09:09:24;143738.91;;;2.00;51.05
28354;BME280;15603;50.878;8.036;2023-02-28T09:11:51;143766.72;;;2.12;50.82
28354;BME280;15603;50.878;8.036;2023-02-28T09:14:18;143777.56;;;2.16;50.89
28354;BME280;15603;50.878;8.036;2023-02-28T09:16:47;143748.59;;;2.04;50.98
28354;BME280;15603;50.878;8.036;2023-02-28T09:19:14;143658.03;;;1.66;51.79
28354;BME280;15603;50.878;8.036;2023-02-28T09:21:41;143725.66;;;1.94;51.20
28354;BME280;15603;50.878;8.036;2023-02-28T09:24:08;143743.78;;;2.02;51.56
28354;BME280;15603;50.878;8.036;2023-02-28T09:26:37;143780.00;;;2.18;52.38
28354;BME280;15603;50.878;8.036;2023-02-28T09:29:13;143784.84;;;2.20;51.96
28354;BME280;15603;50.878;8.036;2023-02-28T09:31:41;143816.25;;;2.33;51.51
28354;BME280;15603;50.878;8.036;2023-02-28T09:34:08;143850.03;;;2.47;51.39
28354;BME280;15603;50.878;8.036;2023-02-28T09:36:35;143789.66;;;2.22;51.86
28354;BME280;15603;50.878;8.036;2023-02-28T09:39:12;143755.81;;;2.07;52.23
28354;BME280;15603;50.878;8.036;2023-02-28T09:41:43;143737.69;;;2.00;52.83
28354;BME280;15603;50.878;8.036;2023-02-28T09:44:38;143722.03;;;1.93;52.05
28354;BME280;15603;50.878;8.036;2023-02-28T09:47:29;143717.19;;;1.91;52.01
28354;BME280;15603;50.878;8.036;2023-02-28T09:50:08;143734.06;;;1.98;51.93
28354;BME280;15603;50.878;8.036;2023-02-28T09:52:38;143705.09;;;1.86;51.71
28354;BME280;15603;50.878;8.036;2023-02-28T09:57:42;143805.34;;;2.28;51.91
28354;BME280;15603;50.878;8.036;2023-02-28T10:05:31;143961.25;;;2.94;50.24
28354;BME280;15603;50.878;8.036;2023-02-28T10:08:12;143978.13;;;3.02;50.33
28354;BME280;15603;50.878;8.036;2023-02-28T10:10:44;143922.56;;;2.78;51.77
28354;BME280;15603;50.878;8.036;2023-02-28T10:13:35;143968.47;;;2.98;50.08
28354;BME280;15603;50.878;8.036;2023-02-28T10:16:16;143969.66;;;2.98;49.94
28354;BME280;15603;50.878;8.036;2023-02-28T10:21:26;144100.25;;;3.53;49.41
28354;BME280;15603;50.878;8.036;2023-02-28T10:24:03;143992.63;;;3.08;48.89
28354;BME280;15603;50.878;8.036;2023-02-28T10:26:32;144005.94;;;3.13;48.60
28354;BME280;15603;50.878;8.036;2023-02-28T10:29:00;143990.25;;;3.07;49.64
28354;BME280;15603;50.878;8.036;2023-02-28T10:31:29;144161.94;;;3.80;48.96
28354;BME280;15603;50.878;8.036;2023-02-28T10:33:56;144151.03;;;3.75;49.80
28354;BME280;15603;50.878;8.036;2023-02-28T10:36:23;144154.66;;;3.77;50.23
28354;BME280;15603;50.878;8.036;2023-02-28T10:38:50;144091.78;;;3.50;50.17
28354;BME280;15603;50.878;8.036;2023-02-28T10:41:31;144157.09;;;3.78;50.67
28354;BME280;15603;50.878;8.036;2023-02-28T10:46:41;144125.66;;;3.64;49.74
28354;BME280;15603;50.878;8.036;2023-02-28T10:49:19;144101.44;;;3.54;48.79
28354;BME280;15603;50.878;8.036;2023-02-28T10:51:49;144004.72;;;3.13;49.11
28354;BME280;15603;50.878;8.036;2023-02-28T10:54:22;144036.16;;;3.26;49.32
28354;BME280;15603;50.878;8.036;2023-02-28T10:59:43;144077.28;;;3.44;49.73
28354;BME280;15603;50.878;8.036;2023-02-28T11:02:34;143938.25;;;2.85;49.33
28354;BME280;15603;50.878;8.036;2023-02-28T11:05:23;144089.38;;;3.49;49.62
28354;BME280;15603;50.878;8.036;2023-02-28T11:07:56;144061.56;;;3.37;48.48
28354;BME280;15603;50.878;8.036;2023-02-28T11:10:26;144138.97;;;3.70;49.65
28354;BME280;15603;50.878;8.036;2023-02-28T11:12:56;144211.53;;;4.01;50.30
28354;BME280;15603;50.878;8.036;2023-02-28T11:15:29;144222.41;;;4.05;49.92
28354;BME280;15603;50.878;8.036;2023-02-28T11:20:32;144132.88;;;3.67;48.64
28354;BME280;15603;50.878;8.036;2023-02-28T11:23:01;144171.59;;;3.84;48.23
28354;BME280;15603;50.878;8.036;2023-02-28T11:25:32;144213.91;;;4.02;47.61
28354;BME280;15603;50.878;8.036;2023-02-28T11:28:06;144194.56;;;3.93;47.91
28354;BME280;15603;50.878;8.036;2023-02-28T11:30:35;144153.47;;;3.76;48.34
28354;BME280;15603;50.878;8.036;2023-02-28T11:36:20;144200.63;;;3.96;49.00
28354;BME280;15603;50.878;8.036;2023-02-28T11:38:48;144251.47;;;4.18;48.31
28354;BME280;15603;50.878;8.036;2023-02-28T11:46:31;144316.78;;;4.45;48.72
28354;BME280;15603;50.878;8.036;2023-02-28T11:51:51;144269.59;;;4.25;47.50
28354;BME280;15603;50.878;8.036;2023-02-28T11:56:55;144278.03;;;4.29;47.79
28354;BME280;15603;50.878;8.036;2023-02-28T11:59:30;144286.50;;;4.32;47.36
28354;BME280;15603;50.878;8.036;2023-02-28T12:07:58;144246.56;;;4.16;48.28
28354;BME280;15603;50.878;8.036;2023-02-28T12:10:36;144019.22;;;3.19;48.86
28354;BME280;15603;50.878;8.036;2023-02-28T12:13:29;144147.44;;;3.73;47.90
28354;BME280;15603;50.878;8.036;2023-02-28T12:27:19;144122.00;;;3.63;48.12
28354;BME280;15603;50.878;8.036;2023-02-28T12:29:54;144122.00;;;3.63;48.81
28354;BME280;15603;50.878;8.036;2023-02-28T12:32:36;144172.81;;;3.84;49.68
28354;BME280;15603;50.878;8.036;2023-02-28T12:44:03;144198.22;;;3.95;49.38
28354;BME280;15603;50.878;8.036;2023-02-28T12:46:40;144276.84;;;4.28;48.55
28354;BME280;15603;50.878;8.036;2023-02-28T12:49:15;144273.19;;;4.27;48.58
28354;BME280;15603;50.878;8.036;2023-02-28T12:51:44;144292.59;;;4.35;49.35
28354;BME280;15603;50.878;8.036;2023-02-28T12:57:24;144262.31;;;4.22;48.29
28354;BME280;15603;50.878;8.036;2023-02-28T12:59:59;144253.84;;;4.19;49.36
28354;BME280;15603;50.878;8.036;2023-02-28T13:08:12;144236.91;;;4.11;47.43
28354;BME280;15603;50.878;8.036;2023-02-28T13:10:47;144236.91;;;4.11;49.09
28354;BME280;15603;50.878;8.036;2023-02-28T13:13:23;144228.44;;;4.08;48.06
28354;BME280;15603;50.878;8.036;2023-02-28T13:16:06;144216.38;;;4.03;48.71
28354;BME280;15603;50.878;8.036;2023-02-28T13:18:39;144204.25;;;3.98;49.04
28354;BME280;15603;50.878;8.036;2023-02-28T13:21:30;144188.53;;;3.91;48.11
28354;BME280;15603;50.878;8.036;2023-02-28T13:24:00;144085.75;;;3.47;48.41
28354;BME280;15603;50.878;8.036;2023-02-28T13:29:00;144053.09;;;3.33;48.27
28354;BME280;15603;50.878;8.036;2023-02-28T13:31:28;144205.44;;;3.98;49.55
28354;BME280;15603;50.878;8.036;2023-02-28T13:36:31;144233.31;;;4.10;50.11
28354;BME280;15603;50.878;8.036;2023-02-28T13:39:03;144263.53;;;4.23;50.35
28354;BME280;15603;50.878;8.036;2023-02-28T13:41:49;144176.44;;;3.86;49.59
28354;BME280;15603;50.878;8.036;2023-02-28T13:44:18;144268.34;;;4.25;49.44
28354;BME280;15603;50.878;8.036;2023-02-28T13:51:51;144302.25;;;4.39;49.31
28354;BME280;15603;50.878;8.036;2023-02-28T13:54:26;144324.06;;;4.48;48.53
28354;BME280;15603;50.878;8.036;2023-02-28T14:00:15;144272.00;;;4.26;49.66
28354;BME280;15603;50.878;8.036;2023-02-28T14:02:34;144280.47;;;4.30;48.68
28354;BME280;15603;50.878;8.036;2023-02-28T14:05:13;144157.09;;;3.78;49.03
28354;BME280;15603;50.878;8.036;2023-02-28T14:07:52;144281.66;;;4.30;50.39
28354;BME280;15603;50.878;8.036;2023-02-28T14:10:25;144298.63;;;4.38;50.65
28354;BME280;15603;50.878;8.036;2023-02-28T14:12:55;144307.09;;;4.41;49.08
28354;BME280;15603;50.878;8.036;2023-02-28T14:20:54;144151.03;;;3.75;50.04
28354;BME280;15603;50.878;8.036;2023-02-28T14:31:19;144322.81;;;4.48;49.60
28354;BME280;15603;50.878;8.036;2023-02-28T14:34:15;144322.81;;;4.48;49.39
28354;BME280;15603;50.878;8.036;2023-02-28T14:36:46;144309.50;;;4.42;50.13
28354;BME280;15603;50.878;8.036;2023-02-28T14:39:16;144270.81;;;4.26;49.60
28354;BME280;15603;50.878;8.036;2023-02-28T14:41:46;144287.75;;;4.33;49.90
28354;BME280;15603;50.878;8.036;2023-02-28T14:44:22;144181.28;;;3.88;49.69
28354;BME280;15603;50.878;8.036;2023-02-28T14:46:53;144239.34;;;4.12;49.90
28354;BME280;15603;50.878;8.036;2023-02-28T14:49:32;144285.31;;;4.32;49.41
28354;BME280;15603;50.878;8.036;2023-02-28T14:52:14;144215.16;;;4.02;50.14
28354;BME280;15603;50.878;8.036;2023-02-28T14:54:43;144244.19;;;4.15;50.89
28354;BME280;15603;50.878;8.036;2023-02-28T14:57:29;144304.66;;;4.40;50.77
28354;BME280;15603;50.878;8.036;2023-02-28T15:14:01;144249.00;;;4.17;49.62
28354;BME280;15603;50.878;8.036;2023-02-28T15:19:05;144274.44;;;4.27;49.83
28354;BME280;15603;50.878;8.036;2023-02-28T15:29:02;144193.38;;;3.93;51.10
28354;BME280;15603;50.878;8.036;2023-02-28T15:31:33;144201.84;;;3.97;51.50
28354;BME280;15603;50.878;8.036;2023-02-28T15:34:37;144177.63;;;3.86;50.51
28354;BME280;15603;50.878;8.036;2023-02-28T15:40:37;144166.75;;;3.82;50.62